sensor_id;sensor_type;location;lat;lon;timestamp;pressure;altitude;pressure_sealevel;temperature;humidity
80749;BME280;70145;53.746;9.970;2024-03-08T00:00:09;102221.88;;;0.38;57.42
80749;BME280;70145;53.746;9.970;2024-03-08T00:02:36;102219.31;;;0.34;57.79
80749;BME280;70145;53.746;9.970;2024-03-08T00:05:03;102214.88;;;0.34;56.98
80749;BME280;70145;53.746;9.970;2024-03-08T00:07:29;102219.41;;;0.28;57.60
80749;BME280;70145;53.746;9.970;2024-03-08T00:09:54;102215.94;;;0.26;57.72
80749;BME280;70145;53.746;9.970;2024-03-08T00:12:19;102213.25;;;0.27;57.68
80749;BME280;70145;53.746;9.970;2024-03-08T00:14:45;102216.06;;;0.20;58.00
80749;BME280;70145;53.746;9.970;2024-03-08T00:17:10;102214.19;;;0.23;57.87
80749;BME280;70145;53.746;9.970;2024-03-08T00:19:36;102210.88;;;0.14;58.40
80749;BME280;70145;53.746;9.970;2024-03-08T00:22:02;102209.97;;;0.13;58.21
80749;BME280;70145;53.746;9.970;2024-03-08T00:24:27;102207.38;;;0.10;57.52
80749;BME280;70145;53.746;9.970;2024-03-08T00:26:54;102204.84;;;0.06;58.13
80749;BME280;70145;53.746;9.970;2024-03-08T00:29:19;102204.09;;;-0.02;57.82
80749;BME280;70145;53.746;9.970;2024-03-08T00:31:44;102202.34;;;-0.03;58.67
80749;BME280;70145;53.746;9.970;2024-03-08T00:34:10;102203.22;;;-0.03;58.15
80749;BME280;70145;53.746;9.970;2024-03-08T00:36:37;102188.25;;;-0.05;58.18
80749;BME280;70145;53.746;9.970;2024-03-08T00:39:02;102197.97;;;-0.06;58.11
80749;BME280;70145;53.746;9.970;2024-03-08T00:41:31;102200.69;;;-0.07;58.44
80749;BME280;70145;53.746;9.970;2024-03-08T00:43:56;102193.56;;;-0.05;57.80
80749;BME280;70145;53.746;9.970;2024-03-08T00:46:22;102196.19;;;-0.05;57.41
80749;BME280;70145;53.746;9.970;2024-03-08T00:48:47;102190.88;;;-0.04;57.54
80749;BME280;70145;53.746;9.970;2024-03-08T00:51:13;102191.91;;;-0.12;58.74
80749;BME280;70145;53.746;9.970;2024-03-08T00:53:40;102191.09;;;-0.16;58.40
80749;BME280;70145;53.746;9.970;2024-03-08T00:56:05;102191.09;;;-0.16;58.48
80749;BME280;70145;53.746;9.970;2024-03-08T00:58:31;102185.78;;;-0.14;57.89
80749;BME280;70145;53.746;9.970;2024-03-08T01:00:56;102186.69;;;-0.15;58.32
80749;BME280;70145;53.746;9.970;2024-03-08T01:03:22;102180.56;;;-0.20;58.00
80749;BME280;70145;53.746;9.970;2024-03-08T01:05:47;102186.72;;;-0.18;58.37
80749;BME280;70145;53.746;9.970;2024-03-08T01:08:13;102182.41;;;-0.25;58.50
80749;BME280;70145;53.746;9.970;2024-03-08T01:10:38;102177.16;;;-0.28;58.47
80749;BME280;70145;53.746;9.970;2024-03-08T01:13:03;102176.22;;;-0.26;58.23
80749;BME280;70145;53.746;9.970;2024-03-08T01:15:29;102171.88;;;-0.28;58.05
80749;BME280;70145;53.746;9.970;2024-03-08T01:17:55;102171.00;;;-0.30;57.82
80749;BME280;70145;53.746;9.970;2024-03-08T01:20:20;102170.16;;;-0.31;58.08
80749;BME280;70145;53.746;9.970;2024-03-08T01:22:46;102164.03;;;-0.34;57.86
80749;BME280;70145;53.746;9.970;2024-03-08T01:25:11;102167.59;;;-0.35;58.17
80749;BME280;70145;53.746;9.970;2024-03-08T01:27:36;102160.56;;;-0.36;57.92
80749;BME280;70145;53.746;9.970;2024-03-08T01:30:03;102156.13;;;-0.37;58.64
80749;BME280;70145;53.746;9.970;2024-03-08T01:32:28;102148.25;;;-0.40;58.22
80749;BME280;70145;53.746;9.970;2024-03-08T01:34:54;102144.78;;;-0.42;57.81
80749;BME280;70145;53.746;9.970;2024-03-08T01:37:19;102139.47;;;-0.42;58.24
80749;BME280;70145;53.746;9.970;2024-03-08T01:39:45;102137.72;;;-0.43;58.60
80749;BME280;70145;53.746;9.970;2024-03-08T01:42:10;102139.53;;;-0.45;58.58
80749;BME280;70145;53.746;9.970;2024-03-08T01:44:38;102130.75;;;-0.49;58.65
80749;BME280;70145;53.746;9.970;2024-03-08T01:47:04;102136.94;;;-0.48;58.98
80749;BME280;70145;53.746;9.970;2024-03-08T01:49:30;102124.75;;;-0.58;58.70
80749;BME280;70145;53.746;9.970;2024-03-08T01:51:56;102121.22;;;-0.57;58.40
80749;BME280;70145;53.746;9.970;2024-03-08T01:54:22;102117.75;;;-0.61;59.04
80749;BME280;70145;53.746;9.970;2024-03-08T01:56:48;102114.28;;;-0.64;59.13
80749;BME280;70145;53.746;9.970;2024-03-08T01:59:14;102116.88;;;-0.61;58.52
80749;BME280;70145;53.746;9.970;2024-03-08T02:01:40;102117.78;;;-0.62;58.47
80749;BME280;70145;53.746;9.970;2024-03-08T02:04:06;102117.81;;;-0.64;59.10
80749;BME280;70145;53.746;9.970;2024-03-08T02:06:32;102109.91;;;-0.67;58.75
80749;BME280;70145;53.746;9.970;2024-03-08T02:08:57;102113.47;;;-0.69;58.69
80749;BME280;70145;53.746;9.970;2024-03-08T02:11:23;102105.56;;;-0.71;59.36
80749;BME280;70145;53.746;9.970;2024-03-08T02:13:48;102105.66;;;-0.75;59.27
80749;BME280;70145;53.746;9.970;2024-03-08T02:16:20;102098.63;;;-0.78;59.36
80749;BME280;70145;53.746;9.970;2024-03-08T02:18:45;102097.81;;;-0.81;59.46
80749;BME280;70145;53.746;9.970;2024-03-08T02:21:12;102094.31;;;-0.83;59.59
80749;BME280;70145;53.746;9.970;2024-03-08T02:23:37;102091.75;;;-0.89;59.94
80749;BME280;70145;53.746;9.970;2024-03-08T02:26:03;102101.59;;;-0.96;60.29
80749;BME280;70145;53.746;9.970;2024-03-08T02:28:30;102094.47;;;-0.92;60.00
80749;BME280;70145;53.746;9.970;2024-03-08T02:30:55;102089.22;;;-0.95;59.66
80749;BME280;70145;53.746;9.970;2024-03-08T02:33:22;102091.00;;;-0.96;59.89
80749;BME280;70145;53.746;9.970;2024-03-08T02:35:48;102086.59;;;-0.97;59.86
80749;BME280;70145;53.746;9.970;2024-03-08T02:38:23;102083.94;;;-0.97;59.71
80749;BME280;70145;53.746;9.970;2024-03-08T02:40:50;102085.75;;;-0.97;59.87
80749;BME280;70145;53.746;9.970;2024-03-08T02:43:17;102088.38;;;-0.96;59.86
80749;BME280;70145;53.746;9.970;2024-03-08T02:45:43;102089.25;;;-0.98;59.79
80749;BME280;70145;53.746;9.970;2024-03-08T02:48:09;102087.53;;;-0.99;59.75
80749;BME280;70145;53.746;9.970;2024-03-08T02:50:36;102088.38;;;-0.96;59.67
80749;BME280;70145;53.746;9.970;2024-03-08T02:53:02;102095.47;;;-0.99;60.23
80749;BME280;70145;53.746;9.970;2024-03-08T02:55:27;102085.78;;;-1.00;60.05
80749;BME280;70145;53.746;9.970;2024-03-08T02:57:53;102085.75;;;-0.97;59.75
80749;BME280;70145;53.746;9.970;2024-03-08T03:00:22;102080.53;;;-1.03;60.21
80749;BME280;70145;53.746;9.970;2024-03-08T03:02:52;102086.72;;;-1.03;59.78
80749;BME280;70145;53.746;9.970;2024-03-08T03:05:22;102081.50;;;-1.07;59.92
80749;BME280;70145;53.746;9.970;2024-03-08T03:07:48;102083.22;;;-1.06;60.21
80749;BME280;70145;53.746;9.970;2024-03-08T03:10:14;102076.28;;;-1.12;60.13
80749;BME280;70145;53.746;9.970;2024-03-08T03:12:43;102077.09;;;-1.08;60.16
80749;BME280;70145;53.746;9.970;2024-03-08T03:15:10;102069.28;;;-1.14;60.67
80749;BME280;70145;53.746;9.970;2024-03-08T03:17:36;102077.22;;;-1.14;60.49
80749;BME280;70145;53.746;9.970;2024-03-08T03:20:02;102063.09;;;-1.13;59.99
80749;BME280;70145;53.746;9.970;2024-03-08T03:22:34;102075.44;;;-1.15;60.43
80749;BME280;70145;53.746;9.970;2024-03-08T03:25:00;102066.63;;;-1.14;59.96
80749;BME280;70145;53.746;9.970;2024-03-08T03:27:26;102060.53;;;-1.19;60.56
80749;BME280;70145;53.746;9.970;2024-03-08T03:29:51;102063.13;;;-1.16;60.35
80749;BME280;70145;53.746;9.970;2024-03-08T03:32:17;102058.78;;;-1.20;60.71
80749;BME280;70145;53.746;9.970;2024-03-08T03:34:44;102066.78;;;-1.23;61.07
80749;BME280;70145;53.746;9.970;2024-03-08T03:37:09;102069.41;;;-1.23;60.60
80749;BME280;70145;53.746;9.970;2024-03-08T03:39:38;102068.56;;;-1.27;61.27
80749;BME280;70145;53.746;9.970;2024-03-08T03:42:19;102060.72;;;-1.32;61.26
80749;BME280;70145;53.746;9.970;2024-03-08T03:44:48;102060.72;;;-1.32;61.19
80749;BME280;70145;53.746;9.970;2024-03-08T03:47:14;102060.72;;;-1.32;60.93
80749;BME280;70145;53.746;9.970;2024-03-08T03:49:40;102058.09;;;-1.35;61.49
80749;BME280;70145;53.746;9.970;2024-03-08T03:52:06;102063.34;;;-1.32;61.20
80749;BME280;70145;53.746;9.970;2024-03-08T03:54:31;102058.97;;;-1.33;61.16
80749;BME280;70145;53.746;9.970;2024-03-08T03:56:56;102059.00;;;-1.36;61.45
80749;BME280;70145;53.746;9.970;2024-03-08T03:59:22;102057.25;;;-1.35;61.30
80749;BME280;70145;53.746;9.970;2024-03-08T04:01:47;102059.06;;;-1.40;61.54
80749;BME280;70145;53.746;9.970;2024-03-08T04:04:14;102057.22;;;-1.34;61.07
80749;BME280;70145;53.746;9.970;2024-03-08T04:06:40;102056.38;;;-1.36;61.02
80749;BME280;70145;53.746;9.970;2024-03-08T04:09:05;102052.03;;;-1.40;61.68
80749;BME280;70145;53.746;9.970;2024-03-08T04:11:30;102055.56;;;-1.41;61.30
80749;BME280;70145;53.746;9.970;2024-03-08T04:13:56;102062.66;;;-1.44;61.71
80749;BME280;70145;53.746;9.970;2024-03-08T04:16:21;102060.00;;;-1.43;61.88
80749;BME280;70145;53.746;9.970;2024-03-08T04:18:46;102053.84;;;-1.43;61.68
80749;BME280;70145;53.746;9.970;2024-03-08T04:21:12;102062.72;;;-1.47;61.58
80749;BME280;70145;53.746;9.970;2024-03-08T04:23:38;102062.69;;;-1.46;61.33
80749;BME280;70145;53.746;9.970;2024-03-08T04:26:03;102058.28;;;-1.45;61.62
80749;BME280;70145;53.746;9.970;2024-03-08T04:28:31;102058.31;;;-1.47;61.85
80749;BME280;70145;53.746;9.970;2024-03-08T04:30:56;102058.34;;;-1.50;61.83
80749;BME280;70145;53.746;9.970;2024-03-08T04:33:22;102051.22;;;-1.46;61.67
80749;BME280;70145;53.746;9.970;2024-03-08T04:35:48;102050.38;;;-1.45;61.15
80749;BME280;70145;53.746;9.970;2024-03-08T04:38:13;102045.94;;;-1.45;61.45
80749;BME280;70145;53.746;9.970;2024-03-08T04:40:39;102047.75;;;-1.48;61.85
80749;BME280;70145;53.746;9.970;2024-03-08T04:43:04;102041.56;;;-1.46;61.38
80749;BME280;70145;53.746;9.970;2024-03-08T04:45:30;102042.47;;;-1.47;61.36
80749;BME280;70145;53.746;9.970;2024-03-08T04:47:55;102037.16;;;-1.45;61.46
80749;BME280;70145;53.746;9.970;2024-03-08T04:50:21;102026.59;;;-1.47;61.29
80749;BME280;70145;53.746;9.970;2024-03-08T04:52:47;102032.75;;;-1.46;61.56
80749;BME280;70145;53.746;9.970;2024-03-08T04:55:12;102040.63;;;-1.43;61.25
80749;BME280;70145;53.746;9.970;2024-03-08T04:57:38;102037.13;;;-1.44;61.38
80749;BME280;70145;53.746;9.970;2024-03-08T05:00:03;102037.94;;;-1.40;61.12
80749;BME280;70145;53.746;9.970;2024-03-08T05:02:35;102022.09;;;-1.40;61.15
80749;BME280;70145;53.746;9.970;2024-03-08T05:05:01;102033.53;;;-1.40;60.96
80749;BME280;70145;53.746;9.970;2024-03-08T05:07:27;102028.25;;;-1.40;60.63
80749;BME280;70145;53.746;9.970;2024-03-08T05:09:52;102035.31;;;-1.42;61.13
80749;BME280;70145;53.746;9.970;2024-03-08T05:12:18;102033.63;;;-1.46;61.58
80749;BME280;70145;53.746;9.970;2024-03-08T05:14:45;102028.34;;;-1.46;61.25
80749;BME280;70145;53.746;9.970;2024-03-08T05:17:11;102026.69;;;-1.53;61.82
80749;BME280;70145;53.746;9.970;2024-03-08T05:19:37;102023.16;;;-1.53;61.77
80749;BME280;70145;53.746;9.970;2024-03-08T05:22:02;102031.09;;;-1.55;62.02
80749;BME280;70145;53.746;9.970;2024-03-08T05:24:28;102015.38;;;-1.62;62.63
80749;BME280;70145;53.746;9.970;2024-03-08T05:26:55;102023.28;;;-1.62;62.43
80749;BME280;70145;53.746;9.970;2024-03-08T05:29:20;102025.13;;;-1.66;62.59
80749;BME280;70145;53.746;9.970;2024-03-08T05:31:50;102027.75;;;-1.64;62.10
80749;BME280;70145;53.746;9.970;2024-03-08T05:34:18;102026.84;;;-1.65;61.98
80749;BME280;70145;53.746;9.970;2024-03-08T05:36:45;102026.00;;;-1.67;62.49
80749;BME280;70145;53.746;9.970;2024-03-08T05:39:12;102019.84;;;-1.66;62.16
80749;BME280;70145;53.746;9.970;2024-03-08T05:41:41;102020.72;;;-1.67;62.59
80749;BME280;70145;53.746;9.970;2024-03-08T05:44:06;102019.84;;;-1.66;62.49
80749;BME280;70145;53.746;9.970;2024-03-08T05:46:33;102020.66;;;-1.62;61.63
80749;BME280;70145;53.746;9.970;2024-03-08T05:48:59;102021.53;;;-1.62;62.08
80749;BME280;70145;53.746;9.970;2024-03-08T05:51:25;102018.03;;;-1.65;62.22
80749;BME280;70145;53.746;9.970;2024-03-08T05:53:52;102017.19;;;-1.66;62.42
80749;BME280;70145;53.746;9.970;2024-03-08T05:56:18;102011.94;;;-1.67;62.30
80749;BME280;70145;53.746;9.970;2024-03-08T05:58:44;102018.13;;;-1.70;62.54
80749;BME280;70145;53.746;9.970;2024-03-08T06:01:09;102019.84;;;-1.66;62.19
80749;BME280;70145;53.746;9.970;2024-03-08T06:03:38;102025.94;;;-1.64;62.26
80749;BME280;70145;53.746;9.970;2024-03-08T06:06:09;102013.63;;;-1.63;62.15
80749;BME280;70145;53.746;9.970;2024-03-08T06:08:34;102015.41;;;-1.65;62.13
80749;BME280;70145;53.746;9.970;2024-03-08T06:11:01;102018.06;;;-1.67;62.35
80749;BME280;70145;53.746;9.970;2024-03-08T06:13:28;102013.72;;;-1.69;62.49
80749;BME280;70145;53.746;9.970;2024-03-08T06:15:56;102017.28;;;-1.73;62.50
80749;BME280;70145;53.746;9.970;2024-03-08T06:18:21;102023.41;;;-1.70;62.22
80749;BME280;70145;53.746;9.970;2024-03-08T06:20:47;102031.31;;;-1.68;61.89
80749;BME280;70145;53.746;9.970;2024-03-08T06:23:12;102022.50;;;-1.67;62.43
80749;BME280;70145;53.746;9.970;2024-03-08T06:25:37;102026.03;;;-1.68;62.86
80749;BME280;70145;53.746;9.970;2024-03-08T06:28:03;102024.25;;;-1.68;62.69
80749;BME280;70145;53.746;9.970;2024-03-08T06:30:28;102017.19;;;-1.64;62.23
80749;BME280;70145;53.746;9.970;2024-03-08T06:32:54;102017.19;;;-1.64;62.26
80749;BME280;70145;53.746;9.970;2024-03-08T06:35:19;102014.56;;;-1.66;62.15
80749;BME280;70145;53.746;9.970;2024-03-08T06:37:45;102016.25;;;-1.62;62.01
80749;BME280;70145;53.746;9.970;2024-03-08T06:40:11;102007.41;;;-1.61;62.23
80749;BME280;70145;53.746;9.970;2024-03-08T06:42:39;102007.34;;;-1.56;61.87
80749;BME280;70145;53.746;9.970;2024-03-08T06:45:05;102012.63;;;-1.55;62.10
80749;BME280;70145;53.746;9.970;2024-03-08T06:47:31;102010.91;;;-1.59;62.21
80749;BME280;70145;53.746;9.970;2024-03-08T06:49:57;102013.56;;;-1.59;62.30
80749;BME280;70145;53.746;9.970;2024-03-08T06:52:22;102004.75;;;-1.59;62.45
80749;BME280;70145;53.746;9.970;2024-03-08T06:54:48;101998.66;;;-1.63;62.85
80749;BME280;70145;53.746;9.970;2024-03-08T06:57:13;101996.06;;;-1.66;62.81
80749;BME280;70145;53.746;9.970;2024-03-08T06:59:39;101993.47;;;-1.69;62.92
80749;BME280;70145;53.746;9.970;2024-03-08T07:02:05;101995.25;;;-1.71;63.07
80749;BME280;70145;53.746;9.970;2024-03-08T07:04:30;102000.53;;;-1.71;63.38
80749;BME280;70145;53.746;9.970;2024-03-08T07:06:58;102001.38;;;-1.69;63.15
80749;BME280;70145;53.746;9.970;2024-03-08T07:09:24;101995.19;;;-1.68;63.01
80749;BME280;70145;53.746;9.970;2024-03-08T07:11:50;102000.47;;;-1.68;63.05
80749;BME280;70145;53.746;9.970;2024-03-08T07:14:23;102007.47;;;-1.64;62.86
80749;BME280;70145;53.746;9.970;2024-03-08T07:16:49;102007.47;;;-1.64;63.11
80749;BME280;70145;53.746;9.970;2024-03-08T07:19:16;102007.41;;;-1.59;63.16
80749;BME280;70145;53.746;9.970;2024-03-08T07:21:43;102003.78;;;-1.54;62.89
80749;BME280;70145;53.746;9.970;2024-03-08T07:24:09;102012.50;;;-1.47;62.98
80749;BME280;70145;53.746;9.970;2024-03-08T07:26:49;102011.56;;;-1.43;62.61
80749;BME280;70145;53.746;9.970;2024-03-08T07:29:17;102004.50;;;-1.43;63.44
80749;BME280;70145;53.746;9.970;2024-03-08T07:31:42;101996.53;;;-1.40;63.23
80749;BME280;70145;53.746;9.970;2024-03-08T07:34:16;101999.16;;;-1.38;63.18
80749;BME280;70145;53.746;9.970;2024-03-08T07:36:42;101996.53;;;-1.40;63.15
80749;BME280;70145;53.746;9.970;2024-03-08T07:39:07;101989.41;;;-1.35;63.50
80749;BME280;70145;53.746;9.970;2024-03-08T07:41:37;101996.47;;;-1.35;63.38
80749;BME280;70145;53.746;9.970;2024-03-08T07:44:02;101986.66;;;-1.29;63.30
80749;BME280;70145;53.746;9.970;2024-03-08T07:46:29;101995.47;;;-1.28;63.35
80749;BME280;70145;53.746;9.970;2024-03-08T07:48:54;102005.00;;;-1.19;63.27
80749;BME280;70145;53.746;9.970;2024-03-08T07:51:19;102000.47;;;-1.13;63.01
80749;BME280;70145;53.746;9.970;2024-03-08T07:53:45;102003.94;;;-1.08;62.72
80749;BME280;70145;53.746;9.970;2024-03-08T07:56:11;102004.84;;;-1.09;63.05
80749;BME280;70145;53.746;9.970;2024-03-08T07:58:39;102000.38;;;-1.07;63.03
80749;BME280;70145;53.746;9.970;2024-03-08T08:01:06;102002.97;;;-1.04;63.09
80749;BME280;70145;53.746;9.970;2024-03-08T08:03:31;102001.16;;;-0.99;62.64
80749;BME280;70145;53.746;9.970;2024-03-08T08:05:56;101993.16;;;-0.96;62.55
80749;BME280;70145;53.746;9.970;2024-03-08T08:08:22;101998.34;;;-0.90;62.78
80749;BME280;70145;53.746;9.970;2024-03-08T08:10:48;101997.34;;;-0.84;63.06
80749;BME280;70145;53.746;9.970;2024-03-08T08:13:14;101995.47;;;-0.78;63.00
80749;BME280;70145;53.746;9.970;2024-03-08T08:15:40;101998.00;;;-0.72;62.52
80749;BME280;70145;53.746;9.970;2024-03-08T08:18:06;101994.41;;;-0.69;62.67
80749;BME280;70145;53.746;9.970;2024-03-08T08:20:31;101999.72;;;-0.69;63.01
80749;BME280;70145;53.746;9.970;2024-03-08T08:22:57;102005.16;;;-0.77;62.85
80749;BME280;70145;53.746;9.970;2024-03-08T08:25:24;102001.53;;;-0.71;63.04
80749;BME280;70145;53.746;9.970;2024-03-08T08:27:49;101994.28;;;-0.62;62.67
80749;BME280;70145;53.746;9.970;2024-03-08T08:30:15;101984.56;;;-0.61;62.32
80749;BME280;70145;53.746;9.970;2024-03-08T08:32:40;101993.28;;;-0.56;62.57
80749;BME280;70145;53.746;9.970;2024-03-08T08:35:07;101993.28;;;-0.56;62.87
80749;BME280;70145;53.746;9.970;2024-03-08T08:37:34;101991.41;;;-0.50;62.45
80749;BME280;70145;53.746;9.970;2024-03-08T08:40:02;101990.47;;;-0.47;62.88
80749;BME280;70145;53.746;9.970;2024-03-08T08:42:33;101981.47;;;-0.39;62.38
80749;BME280;70145;53.746;9.970;2024-03-08T08:44:59;101978.69;;;-0.31;62.80
80749;BME280;70145;53.746;9.970;2024-03-08T08:47:24;101979.56;;;-0.31;62.18
80749;BME280;70145;53.746;9.970;2024-03-08T08:49:50;101982.00;;;-0.20;62.02
80749;BME280;70145;53.746;9.970;2024-03-08T08:52:16;101980.13;;;-0.15;62.31
80749;BME280;70145;53.746;9.970;2024-03-08T08:54:42;101969.47;;;-0.12;62.18
80749;BME280;70145;53.746;9.970;2024-03-08T08:57:07;101968.44;;;-0.05;61.86
80749;BME280;70145;53.746;9.970;2024-03-08T08:59:35;101968.38;;;-0.02;62.45
80749;BME280;70145;53.746;9.970;2024-03-08T09:02:05;101964.69;;;0.05;62.52
80749;BME280;70145;53.746;9.970;2024-03-08T09:04:31;101965.41;;;0.13;62.27
80749;BME280;70145;53.746;9.970;2024-03-08T09:06:57;101952.91;;;0.18;62.09
80749;BME280;70145;53.746;9.970;2024-03-08T09:09:23;101953.69;;;0.23;61.73
80749;BME280;70145;53.746;9.970;2024-03-08T09:11:48;101955.22;;;0.33;62.65
80749;BME280;70145;53.746;9.970;2024-03-08T09:14:15;101955.88;;;0.41;62.43
80749;BME280;70145;53.746;9.970;2024-03-08T09:16:43;101953.06;;;0.48;62.43
80749;BME280;70145;53.746;9.970;2024-03-08T09:19:08;101942.31;;;0.54;61.61
80749;BME280;70145;53.746;9.970;2024-03-08T09:21:36;101950.09;;;0.62;61.71
80749;BME280;70145;53.746;9.970;2024-03-08T09:24:01;101948.09;;;0.70;61.59
80749;BME280;70145;53.746;9.970;2024-03-08T09:26:27;101933.69;;;0.80;61.94
80749;BME280;70145;53.746;9.970;2024-03-08T09:28:52;101943.22;;;0.88;61.19
80749;BME280;70145;53.746;9.970;2024-03-08T09:31:20;101935.06;;;0.96;60.82
80749;BME280;70145;53.746;9.970;2024-03-08T09:33:45;101940.13;;;1.05;61.43
80749;BME280;70145;53.746;9.970;2024-03-08T09:36:11;101927.84;;;1.01;60.82
80749;BME280;70145;53.746;9.970;2024-03-08T09:38:37;101922.31;;;1.10;60.69
80749;BME280;70145;53.746;9.970;2024-03-08T09:41:04;101916.72;;;1.19;61.06
80749;BME280;70145;53.746;9.970;2024-03-08T09:43:30;101909.53;;;1.24;60.53
80749;BME280;70145;53.746;9.970;2024-03-08T09:45:57;101904.84;;;1.32;60.66
80749;BME280;70145;53.746;9.970;2024-03-08T09:48:23;101910.94;;;1.37;60.43
80749;BME280;70145;53.746;9.970;2024-03-08T09:50:51;101898.28;;;1.45;60.31
80749;BME280;70145;53.746;9.970;2024-03-08T09:53:24;101892.69;;;1.56;59.54
80749;BME280;70145;53.746;9.970;2024-03-08T09:55:50;101903.91;;;1.65;59.90
80749;BME280;70145;53.746;9.970;2024-03-08T09:58:16;101887.78;;;1.71;59.55
80749;BME280;70145;53.746;9.970;2024-03-08T10:00:52;101905.25;;;1.80;59.08
80749;BME280;70145;53.746;9.970;2024-03-08T10:03:19;101892.69;;;1.85;58.52
80749;BME280;70145;53.746;9.970;2024-03-08T10:05:44;101884.38;;;1.95;58.94
80749;BME280;70145;53.746;9.970;2024-03-08T10:08:10;101885.78;;;2.07;59.08
80749;BME280;70145;53.746;9.970;2024-03-08T10:10:37;101877.66;;;2.11;58.25
80749;BME280;70145;53.746;9.970;2024-03-08T10:13:07;101875.47;;;2.25;58.42
80749;BME280;70145;53.746;9.970;2024-03-08T10:15:33;101867.19;;;2.34;58.72
80749;BME280;70145;53.746;9.970;2024-03-08T10:17:59;101861.63;;;2.42;57.49
80749;BME280;70145;53.746;9.970;2024-03-08T10:20:24;101861.47;;;2.46;57.69
80749;BME280;70145;53.746;9.970;2024-03-08T10:22:51;101861.25;;;2.52;57.59
80749;BME280;70145;53.746;9.970;2024-03-08T10:25:19;101855.63;;;2.61;57.47
80749;BME280;70145;53.746;9.970;2024-03-08T10:27:44;101852.72;;;2.69;56.72
80749;BME280;70145;53.746;9.970;2024-03-08T10:30:14;101852.34;;;2.79;57.34
80749;BME280;70145;53.746;9.970;2024-03-08T10:32:41;101847.50;;;2.90;57.27
80749;BME280;70145;53.746;9.970;2024-03-08T10:35:10;101834.81;;;2.98;57.41
80749;BME280;70145;53.746;9.970;2024-03-08T10:37:45;101839.78;;;3.07;56.64
80749;BME280;70145;53.746;9.970;2024-03-08T10:40:16;101828.84;;;3.15;56.96
80749;BME280;70145;53.746;9.970;2024-03-08T10:42:53;101838.28;;;3.23;56.01
80749;BME280;70145;53.746;9.970;2024-03-08T10:45:35;101824.75;;;3.29;55.24
80749;BME280;70145;53.746;9.970;2024-03-08T10:48:16;101824.63;;;3.32;54.88
80749;BME280;70145;53.746;9.970;2024-03-08T10:50:45;101815.25;;;3.46;55.70
80749;BME280;70145;53.746;9.970;2024-03-08T10:53:13;101821.34;;;3.49;53.95
80749;BME280;70145;53.746;9.970;2024-03-08T10:55:40;101813.97;;;3.56;53.86
80749;BME280;70145;53.746;9.970;2024-03-08T10:58:08;101809.47;;;3.58;54.83
80749;BME280;70145;53.746;9.970;2024-03-08T11:00:34;101812.81;;;3.63;53.86
80749;BME280;70145;53.746;9.970;2024-03-08T11:03:00;101805.28;;;3.74;54.55
80749;BME280;70145;53.746;9.970;2024-03-08T11:05:41;101800.78;;;3.74;52.50
80749;BME280;70145;53.746;9.970;2024-03-08T11:08:18;101799.47;;;3.86;53.92
80749;BME280;70145;53.746;9.970;2024-03-08T11:10:52;101793.91;;;3.90;54.11
80749;BME280;70145;53.746;9.970;2024-03-08T11:13:36;101791.78;;;4.00;54.14
80749;BME280;70145;53.746;9.970;2024-03-08T11:16:02;101784.41;;;4.06;54.13
80749;BME280;70145;53.746;9.970;2024-03-08T11:18:32;101780.41;;;4.16;54.01
80749;BME280;70145;53.746;9.970;2024-03-08T11:21:02;101767.59;;;4.26;54.06
80749;BME280;70145;53.746;9.970;2024-03-08T11:23:29;101776.13;;;4.34;54.31
80749;BME280;70145;53.746;9.970;2024-03-08T11:25:56;101764.13;;;4.44;53.71
80749;BME280;70145;53.746;9.970;2024-03-08T11:28:24;101759.34;;;4.52;53.10
80749;BME280;70145;53.746;9.970;2024-03-08T11:33:31;101740.06;;;4.65;52.56
80749;BME280;70145;53.746;9.970;2024-03-08T11:36:11;101747.69;;;4.73;51.41
80749;BME280;70145;53.746;9.970;2024-03-08T11:38:42;101743.19;;;4.75;51.30
80749;BME280;70145;53.746;9.970;2024-03-08T11:41:18;101732.16;;;4.82;51.22
80749;BME280;70145;53.746;9.970;2024-03-08T11:43:46;101725.34;;;4.95;52.18
80749;BME280;70145;53.746;9.970;2024-03-08T11:46:13;101729.72;;;4.96;50.17
80749;BME280;70145;53.746;9.970;2024-03-08T11:48:43;101715.81;;;5.08;50.88
80749;BME280;70145;53.746;9.970;2024-03-08T11:51:13;101719.84;;;5.17;50.95
80749;BME280;70145;53.746;9.970;2024-03-08T11:53:39;101724.63;;;5.29;50.95
80749;BME280;70145;53.746;9.970;2024-03-08T11:56:12;101719.22;;;5.30;48.92
80749;BME280;70145;53.746;9.970;2024-03-08T11:58:38;101701.88;;;5.39;49.06
80749;BME280;70145;53.746;9.970;2024-03-08T12:01:10;101704.47;;;5.40;48.18
80749;BME280;70145;53.746;9.970;2024-03-08T12:03:39;101692.47;;;5.49;49.12
80749;BME280;70145;53.746;9.970;2024-03-08T12:06:05;101700.19;;;5.55;47.39
80749;BME280;70145;53.746;9.970;2024-03-08T12:08:30;101699.19;;;5.57;47.53
80749;BME280;70145;53.746;9.970;2024-03-08T12:10:57;101696.09;;;5.67;48.46
80749;BME280;70145;53.746;9.970;2024-03-08T12:13:34;101696.41;;;5.78;48.39
80749;BME280;70145;53.746;9.970;2024-03-08T12:16:02;101696.03;;;5.85;48.50
80749;BME280;70145;53.746;9.970;2024-03-08T12:18:33;101683.63;;;5.84;48.06
80749;BME280;70145;53.746;9.970;2024-03-08T12:21:11;101693.97;;;5.90;47.46
80749;BME280;70145;53.746;9.970;2024-03-08T12:23:39;101680.38;;;5.95;45.74
80749;BME280;70145;53.746;9.970;2024-03-08T12:26:12;101670.25;;;6.01;46.29
80749;BME280;70145;53.746;9.970;2024-03-08T12:28:39;101659.25;;;6.07;45.91
80749;BME280;70145;53.746;9.970;2024-03-08T12:31:07;101664.09;;;6.16;46.75
80749;BME280;70145;53.746;9.970;2024-03-08T12:33:54;101654.03;;;6.21;45.13
80749;BME280;70145;53.746;9.970;2024-03-08T12:36:21;101645.06;;;6.22;45.37
80749;BME280;70145;53.746;9.970;2024-03-08T12:38:47;101635.44;;;6.35;46.37
80749;BME280;70145;53.746;9.970;2024-03-08T12:41:20;101640.63;;;6.38;44.29
80749;BME280;70145;53.746;9.970;2024-03-08T12:43:46;101634.81;;;6.47;45.30
80749;BME280;70145;53.746;9.970;2024-03-08T12:46:18;101627.25;;;6.55;45.00
80749;BME280;70145;53.746;9.970;2024-03-08T12:48:47;101633.91;;;6.64;45.23
80749;BME280;70145;53.746;9.970;2024-03-08T12:51:13;101629.16;;;6.69;44.03
80749;BME280;70145;53.746;9.970;2024-03-08T12:53:44;101627.63;;;6.80;44.49